Camroden, New York
Current Conditions -  °F | °C
As of 1:16 PM on Friday 28 Nov 2014 (Local Time) from KRME Reporting Station
Light Snow Light Snow  
Wind Chill: 12°   Ceiling: 2500
Heat Index: 25°   Visibility: 1.7mi
Dew Point: 20°   Wind: 16mph
Humidity: 81%   Direction: 260°W
Pressure: 30.18"   Gusts: NA
Location:  43.2466°N, 75.4624°W
Report Text: KRME 281816Z AUTO 26014KT 1 3/4SM -SN BKN025 BKN033 BKN055 M04/M07 A3018 RMK AO2 UPE00SNB06 P0000 T10391067
Loading
Personal Weather Stations






























Interactive Weather Map New forecast layout! Learn more

10-Day Weather Forecast

Advertisements
Track Severe Weather on mobile